Time;durP1;ratioP1;P1;durP2;ratioP2;P2;SDS_P1;SDS_P2;PMS_P1;PMS_P2;Temp;Humidity;BMP_temperature;BMP_pressure;BME280_temperature;BME280_humidity;BME280_pressure;Samples;Min_cycle;Max_cycle;Signal;HPM_P1;HPM_P2
2022/10/16 00:00:36;;;;;;;4.45;4.00;;;16.70;99.90;;;;;;5010297;28;20049;-77
2022/10/16 00:03:03;;;;;;;4.30;3.90;;;16.60;99.90;;;;;;5010384;28;20053;-77
2022/10/16 00:05:29;;;;;;;5.00;4.50;;;16.70;99.90;;;;;;5010534;28;20044;-77
2022/10/16 00:07:54;;;;;;;4.00;3.67;;;16.70;99.90;;;;;;5010862;28;20030;-77
2022/10/16 00:10:20;;;;;;;4.10;3.75;;;16.70;99.90;;;;;;5010698;28;20495;-76
2022/10/16 00:12:46;;;;;;;4.22;3.83;;;16.80;99.90;;;;;;5013344;28;20410;-77
2022/10/16 00:15:12;;;;;;;3.72;3.42;;;16.80;99.90;;;;;;5014564;28;20140;-77
2022/10/16 00:17:38;;;;;;;4.20;3.80;;;16.70;99.90;;;;;;5013746;28;20027;-77
2022/10/16 00:20:04;;;;;;;4.40;4.00;;;16.70;99.90;;;;;;5014251;28;20519;-77
2022/10/16 00:22:30;;;;;;;4.35;3.95;;;16.80;99.90;;;;;;5013806;28;20041;-77
2022/10/16 00:24:56;;;;;;;4.13;3.72;;;16.80;99.90;;;;;;5012843;28;20044;-77
2022/10/16 00:27:22;;;;;;;4.20;3.83;;;16.80;99.90;;;;;;5013740;28;20030;-77
2022/10/16 00:29:51;;;;;;;4.25;3.95;;;16.80;99.90;;;;;;5012729;28;20121;-77
2022/10/16 00:32:19;;;;;;;4.15;3.85;;;16.80;99.90;;;;;;5013503;28;20033;-77
2022/10/16 00:34:45;;;;;;;3.67;3.38;;;16.80;99.90;;;;;;5029220;28;20491;-77
2022/10/16 00:37:11;;;;;;;3.70;3.40;;;16.80;99.90;;;;;;5013798;28;20022;-77
2022/10/16 00:39:37;;;;;;;4.18;3.78;;;16.70;99.90;;;;;;5014045;28;20024;-77
2022/10/16 00:42:03;;;;;;;3.70;3.40;;;16.80;99.90;;;;;;5013464;28;20399;-77
2022/10/16 00:44:56;;;;;;;4.40;4.00;;;16.70;99.90;;;;;;5028915;28;20030;-77
2022/10/16 00:47:53;;;;;;;4.07;3.70;;;16.70;99.90;;;;;;5034221;28;20030;-77
2022/10/16 00:50:29;;;;;;;3.92;3.42;;;16.70;99.90;;;;;;5013312;28;20038;-77
2022/10/16 00:52:56;;;;;;;3.92;3.63;;;16.80;99.90;;;;;;5019872;28;20022;-77
2022/10/16 00:55:23;;;;;;;5.57;3.40;;;16.70;99.90;;;;;;5013218;28;20048;-77
2022/10/16 00:57:50;;;;;;;3.85;3.55;;;16.70;99.90;;;;;;5013750;28;20026;-77
2022/10/16 01:00:21;;;;;;;4.20;3.80;;;16.80;99.90;;;;;;5012165;28;20025;-77
2022/10/16 01:02:59;;;;;;;4.22;3.78;;;16.80;99.90;;;;;;5012978;28;20034;-77
2022/10/16 01:05:53;;;;;;;4.40;4.00;;;16.80;99.90;;;;;;5012650;28;20040;-77
2022/10/16 01:08:27;;;;;;;4.00;3.70;;;16.80;99.90;;;;;;5012991;28;20109;-77
2022/10/16 01:11:02;;;;;;;3.90;3.60;;;16.90;99.90;;;;;;5012906;28;20025;-77
2022/10/16 01:13:35;;;;;;;5.13;4.13;;;16.80;99.90;;;;;;5012965;28;20499;-77
2022/10/16 01:16:15;;;;;;;4.30;3.92;;;16.90;99.90;;;;;;5012307;28;20037;-77
2022/10/16 01:18:52;;;;;;;4.07;3.78;;;16.90;99.90;;;;;;5012633;28;20148;-77
2022/10/16 01:21:37;;;;;;;4.45;4.05;;;17.00;99.90;;;;;;5015787;28;20114;-77
2022/10/16 01:24:09;;;;;;;4.50;4.10;;;17.20;99.90;;;;;;5012638;28;20481;-77
2022/10/16 01:26:57;;;;;;;5.05;4.55;;;17.10;99.90;;;;;;5012419;28;20101;-77
2022/10/16 01:29:28;;;;;;;4.60;4.20;;;17.20;99.90;;;;;;5012248;28;20104;-77
2022/10/16 01:31:59;;;;;;;4.78;4.20;;;17.20;99.90;;;;;;5012470;28;20033;-77
2022/10/16 01:34:37;;;;;;;4.50;4.10;;;17.20;99.90;;;;;;5012762;28;20028;-77
2022/10/16 01:37:07;;;;;;;4.38;3.97;;;17.20;99.90;;;;;;5012288;28;20029;-77
2022/10/16 01:39:37;;;;;;;3.88;3.50;;;17.30;99.90;;;;;;5012496;28;20049;-77
2022/10/16 01:42:27;;;;;;;4.50;4.10;;;17.30;99.90;;;;;;5027392;28;20026;-77
2022/10/16 01:44:54;;;;;;;4.32;3.92;;;17.30;99.90;;;;;;5012364;28;20030;-77
2022/10/16 01:47:25;;;;;;;4.70;3.67;;;17.30;99.90;;;;;;5012115;28;20052;-77
2022/10/16 01:49:51;;;;;;;4.32;3.95;;;17.30;99.90;;;;;;5012186;28;20033;-77
2022/10/16 01:52:22;;;;;;;4.93;4.43;;;17.30;99.90;;;;;;5014513;28;20030;-77
2022/10/16 01:54:51;;;;;;;4.10;3.80;;;17.30;99.90;;;;;;5015293;28;20109;-77
2022/10/16 01:57:18;;;;;;;4.13;3.75;;;17.30;99.90;;;;;;5012025;28;20088;-77
2022/10/16 01:59:48;;;;;;;5.03;4.63;;;17.40;99.90;;;;;;5012349;28;20098;-77
2022/10/16 02:02:16;;;;;;;4.97;4.57;;;17.40;99.90;;;;;;5026992;28;20030;-77
2022/10/16 02:05:14;;;;;;;5.63;4.85;;;17.40;99.90;;;;;;5011875;28;20029;-77
2022/10/16 02:07:41;;;;;;;5.22;4.72;;;17.40;99.90;;;;;;5029196;28;20037;-77
2022/10/16 02:10:08;;;;;;;4.82;4.43;;;17.40;99.90;;;;;;5029353;28;20496;-77
2022/10/16 02:12:39;;;;;;;4.47;4.07;;;17.40;99.90;;;;;;5028318;28;20111;-77
2022/10/16 02:15:05;;;;;;;4.50;4.10;;;17.30;99.90;;;;;;5022890;28;20028;-77
2022/10/16 02:17:31;;;;;;;4.70;4.28;;;17.40;99.90;;;;;;5012153;28;20025;-77
2022/10/16 02:19:58;;;;;;;5.70;4.80;;;17.40;99.90;;;;;;5029009;28;20447;-77
2022/10/16 02:22:29;;;;;;;5.70;4.82;;;17.30;99.90;;;;;;5028637;28;20097;-77
2022/10/16 02:25:31;;;;;;;5.47;4.53;;;17.30;99.90;;;;;;5019350;28;20041;-77
2022/10/16 02:28:19;;;;;;;4.60;4.20;;;17.20;99.90;;;;;;5015359;28;20037;-77
2022/10/16 02:30:50;;;;;;;4.97;3.90;;;17.30;99.90;;;;;;5028286;28;20037;-77
2022/10/16 02:33:16;;;;;;;;;;;17.20;99.90;;;;;;5028601;28;20041;-77
2022/10/16 02:35:44;;;;;;;4.68;3.83;;;17.30;99.90;;;;;;5028752;28;20304;-77
2022/10/16 02:38:12;;;;;;;4.75;4.10;;;17.20;99.90;;;;;;4999395;28;20137;-77
2022/10/16 02:40:38;;;;;;;4.63;4.20;;;17.10;99.90;;;;;;5009173;28;20014;-77
2022/10/16 02:43:05;;;;;;;4.63;4.22;;;17.10;99.90;;;;;;5022549;28;20025;-77
2022/10/16 02:45:30;;;;;;;5.00;4.57;;;17.10;99.90;;;;;;5011421;28;20065;-77
2022/10/16 02:47:56;;;;;;;4.53;4.13;;;17.10;99.90;;;;;;5010922;28;20491;-77
2022/10/16 02:50:22;;;;;;;4.78;4.30;;;17.10;99.90;;;;;;5005064;28;20049;-77
2022/10/16 02:52:48;;;;;;;4.78;4.30;;;17.00;99.90;;;;;;5010633;28;20025;-77
2022/10/16 02:55:14;;;;;;;5.68;4.60;;;17.10;99.90;;;;;;5011256;28;20017;-77
2022/10/16 02:57:40;;;;;;;4.95;4.45;;;17.00;99.90;;;;;;5011271;28;20049;-77
2022/10/16 03:00:08;;;;;;;5.35;4.63;;;17.00;99.90;;;;;;5011303;28;20061;-77
2022/10/16 03:02:34;;;;;;;4.90;4.50;;;17.10;99.90;;;;;;5011161;28;20116;-77
2022/10/16 03:04:59;;;;;;;4.75;4.30;;;17.10;99.90;;;;;;5011478;28;20129;-77
2022/10/16 03:07:25;;;;;;;4.50;4.10;;;17.00;99.90;;;;;;5011311;28;20033;-77
2022/10/16 03:09:51;;;;;;;5.13;4.63;;;17.00;99.90;;;;;;5011141;28;20080;-77
2022/10/16 03:12:16;;;;;;;4.72;4.32;;;16.90;99.90;;;;;;5008929;28;20060;-77
2022/10/16 03:14:42;;;;;;;4.78;3.75;;;16.80;99.90;;;;;;5007504;28;20045;-77
2022/10/16 03:17:08;;;;;;;4.93;4.43;;;16.80;99.90;;;;;;5003773;28;20476;-77
2022/10/16 03:19:34;;;;;;;5.55;4.65;;;16.80;99.90;;;;;;5010808;28;20022;-77
2022/10/16 03:22:00;;;;;;;5.55;3.95;;;16.80;99.90;;;;;;5011029;28;20125;-77
2022/10/16 03:24:25;;;;;;;4.30;3.90;;;16.80;99.90;;;;;;5011422;28;20152;-77
2022/10/16 03:26:51;;;;;;;4.65;4.25;;;16.80;99.90;;;;;;5011061;28;20518;-77
2022/10/16 03:29:17;;;;;;;4.40;4.00;;;16.70;99.90;;;;;;5011195;28;20514;-77
2022/10/16 03:31:42;;;;;;;4.30;3.90;;;16.70;99.90;;;;;;5011095;28;20517;-77
2022/10/16 03:34:08;;;;;;;4.15;3.75;;;16.70;99.90;;;;;;5010936;28;20565;-77
2022/10/16 03:36:34;;;;;;;4.18;3.83;;;16.80;99.90;;;;;;5011060;28;20504;-77
2022/10/16 03:39:00;;;;;;;4.50;4.10;;;16.80;99.90;;;;;;5010769;28;20500;-77
2022/10/16 03:41:25;;;;;;;4.45;4.05;;;16.70;99.90;;;;;;5010779;28;20084;-77
2022/10/16 03:43:51;;;;;;;4.47;4.05;;;16.70;99.90;;;;;;5010803;28;20110;-77
2022/10/16 03:46:17;;;;;;;4.25;3.95;;;16.60;99.90;;;;;;5012724;28;20061;-77
2022/10/16 03:48:42;;;;;;;5.60;4.20;;;16.60;99.90;;;;;;4994796;28;20018;-77
2022/10/16 03:51:08;;;;;;;4.75;4.28;;;16.60;99.90;;;;;;5007447;28;20488;-77
2022/10/16 03:53:34;;;;;;;4.55;4.15;;;16.70;99.90;;;;;;5014225;28;20403;-77
2022/10/16 03:56:00;;;;;;;4.65;4.25;;;16.80;99.90;;;;;;5014362;28;20479;-77
2022/10/16 03:58:25;;;;;;;5.45;4.13;;;16.90;99.90;;;;;;5014419;28;20377;-77
2022/10/16 04:00:51;;;;;;;5.82;4.85;;;17.00;99.90;;;;;;5014306;28;20551;-77
2022/10/16 04:03:18;;;;;;;5.00;4.38;;;17.00;99.90;;;;;;5012515;28;20080;-78
2022/10/16 04:05:44;;;;;;;4.70;4.10;;;17.10;99.90;;;;;;5014184;28;20026;-77
2022/10/16 04:08:10;;;;;;;5.18;4.40;;;17.00;99.90;;;;;;5014599;28;20034;-77
2022/10/16 04:10:36;;;;;;;5.03;4.53;;;16.90;99.90;;;;;;5014299;28;20029;-77
2022/10/16 04:13:01;;;;;;;5.15;4.65;;;16.90;99.90;;;;;;5013652;28;20085;-77
2022/10/16 04:15:27;;;;;;;5.75;5.15;;;16.90;99.90;;;;;;5004815;28;20022;-77
2022/10/16 04:17:53;;;;;;;5.43;4.40;;;17.00;99.90;;;;;;5013337;28;20499;-77
2022/10/16 04:20:18;;;;;;;5.20;4.70;;;17.10;99.90;;;;;;5013921;28;20026;-77
2022/10/16 04:22:45;;;;;;;5.60;5.10;;;17.10;99.90;;;;;;5000843;28;20042;-77
2022/10/16 04:25:11;;;;;;;5.18;4.68;;;17.20;99.90;;;;;;5013685;28;20041;-77
2022/10/16 04:27:38;;;;;;;5.40;4.90;;;17.30;99.90;;;;;;5012839;28;20022;-77
2022/10/16 04:30:04;;;;;;;5.05;4.60;;;17.30;99.90;;;;;;5014064;28;20049;-77
2022/10/16 04:32:30;;;;;;;5.72;5.03;;;17.30;99.90;;;;;;5028508;28;20026;-77
2022/10/16 04:34:56;;;;;;;5.03;4.57;;;17.40;99.90;;;;;;5013727;28;20163;-77
2022/10/16 04:37:25;;;;;;;5.30;4.78;;;17.40;99.90;;;;;;5013584;28;20459;-77
2022/10/16 04:39:52;;;;;;;5.50;4.45;;;17.40;99.90;;;;;;5013613;28;20017;-77
2022/10/16 04:42:17;;;;;;;5.28;4.78;;;17.30;99.90;;;;;;5013375;28;20026;-77
2022/10/16 04:44:43;;;;;;;4.88;4.47;;;17.40;99.90;;;;;;5013580;28;20084;-77
2022/10/16 04:47:08;;;;;;;5.05;4.55;;;17.40;99.90;;;;;;5013500;28;20022;-77
2022/10/16 04:49:34;;;;;;;4.72;4.35;;;17.40;99.90;;;;;;5013347;28;20034;-77
2022/10/16 04:52:00;;;;;;;4.70;4.20;;;17.50;99.90;;;;;;5012114;28;20403;-77
2022/10/16 04:54:26;;;;;;;6.72;5.20;;;17.50;99.90;;;;;;5028658;28;20034;-77
2022/10/16 04:56:51;;;;;;;5.50;4.93;;;17.50;99.90;;;;;;5012836;28;20025;-77
2022/10/16 04:59:21;;;;;;;5.38;4.88;;;17.50;99.90;;;;;;5013397;28;20109;-78
2022/10/16 05:01:46;;;;;;;5.25;4.78;;;17.50;99.90;;;;;;5012665;28;20276;-77
2022/10/16 05:04:14;;;;;;;6.32;5.35;;;17.50;99.90;;;;;;5012750;28;20030;-77
2022/10/16 05:06:40;;;;;;;6.38;4.95;;;17.50;99.90;;;;;;5028533;28;20029;-77
2022/10/16 05:09:07;;;;;;;5.60;4.97;;;17.50;99.90;;;;;;5012889;28;20030;-77
2022/10/16 05:11:33;;;;;;;5.75;4.90;;;17.60;99.90;;;;;;5028365;28;20589;-77
2022/10/16 05:13:59;;;;;;;11.23;4.95;;;17.60;99.90;;;;;;5013130;28;20049;-77
2022/10/16 05:16:25;;;;;;;5.85;5.35;;;17.60;99.90;;;;;;5012886;28;20483;-77
2022/10/16 05:18:52;;;;;;;7.60;6.05;;;17.60;99.90;;;;;;5012949;28;20407;-77
2022/10/16 05:21:17;;;;;;;5.72;5.22;;;17.60;99.90;;;;;;5012551;28;20025;-77
2022/10/16 05:23:43;;;;;;;5.45;5.05;;;17.70;99.90;;;;;;5011576;28;20044;-77
2022/10/16 05:26:09;;;;;;;5.55;5.05;;;17.70;99.90;;;;;;5027489;28;20092;-77
2022/10/16 05:28:35;;;;;;;5.18;4.63;;;17.60;99.90;;;;;;5012603;28;20110;-77
2022/10/16 05:31:05;;;;;;;6.57;5.40;;;17.70;99.90;;;;;;5012702;28;20038;-77
2022/10/16 05:33:31;;;;;;;6.35;5.75;;;17.70;99.90;;;;;;5007522;28;20041;-77
2022/10/16 05:36:00;;;;;;;6.80;5.65;;;17.70;99.90;;;;;;5028079;28;20076;-77
2022/10/16 05:38:26;;;;;;;7.00;6.28;;;17.70;99.90;;;;;;5011627;28;20108;-77
2022/10/16 05:40:56;;;;;;;7.55;6.72;;;17.70;99.90;;;;;;5001225;28;20555;-77
2022/10/16 05:43:22;;;;;;;6.00;5.40;;;17.80;99.90;;;;;;5012697;28;20025;-77
2022/10/16 05:46:04;;;;;;;6.55;5.95;;;17.70;99.90;;;;;;5012596;28;20040;-77
2022/10/16 05:48:31;;;;;;;7.00;6.30;;;17.80;99.90;;;;;;5012635;28;20041;-77
2022/10/16 05:50:58;;;;;;;7.80;7.07;;;17.80;99.90;;;;;;5012427;28;20037;-77
2022/10/16 05:53:25;;;;;;;7.88;6.32;;;17.80;99.90;;;;;;5018499;28;20109;-77
2022/10/16 05:55:55;;;;;;;7.43;6.32;;;17.80;99.90;;;;;;5012774;28;20069;-77
2022/10/16 05:58:22;;;;;;;7.55;6.72;;;17.80;99.90;;;;;;5027653;28;20033;-77
2022/10/16 06:00:55;;;;;;;6.93;6.25;;;17.80;99.90;;;;;;5027352;28;20053;-77
2022/10/16 06:03:21;;;;;;;6.43;5.70;;;17.80;99.90;;;;;;4999469;28;20025;-77
2022/10/16 06:05:46;;;;;;;7.18;5.72;;;17.80;99.90;;;;;;5012548;28;20034;-78
2022/10/16 06:08:12;;;;;;;6.90;6.20;;;17.80;99.90;;;;;;5011165;28;20503;-77
2022/10/16 06:10:38;;;;;;;6.30;5.70;;;17.80;99.90;;;;;;5011684;28;20069;-77
2022/10/16 06:13:03;;;;;;;6.13;5.40;;;17.90;99.90;;;;;;5004014;28;20049;-77
2022/10/16 06:15:29;;;;;;;6.40;5.80;;;17.90;99.90;;;;;;5010706;28;20626;-77
2022/10/16 06:17:55;;;;;;;5.97;5.35;;;17.90;99.90;;;;;;5011899;28;20080;-77
2022/10/16 06:20:21;;;;;;;6.13;5.00;;;17.90;99.90;;;;;;5012182;28;20025;-77
2022/10/16 06:22:47;;;;;;;5.80;5.03;;;17.90;99.90;;;;;;5011899;28;20064;-77
2022/10/16 06:25:12;;;;;;;6.07;5.57;;;17.90;99.90;;;;;;5012254;28;20554;-77
2022/10/16 06:27:41;;;;;;;7.45;5.90;;;17.90;99.90;;;;;;5011976;28;20504;-77
2022/10/16 06:30:07;;;;;;;5.90;5.20;;;18.00;99.90;;;;;;5011735;28;20168;-77
2022/10/16 06:32:33;;;;;;;8.52;6.07;;;18.00;99.90;;;;;;5011811;28;20026;-77
2022/10/16 06:34:59;;;;;;;7.45;6.70;;;18.00;99.90;;;;;;5011957;28;20021;-77
2022/10/16 06:37:24;;;;;;;8.68;6.38;;;18.10;99.90;;;;;;5011655;28;20099;-77
2022/10/16 06:39:53;;;;;;;8.18;6.25;;;18.00;99.90;;;;;;5011698;28;20014;-77
2022/10/16 06:42:19;;;;;;;7.25;6.55;;;18.10;99.90;;;;;;4999453;28;20030;-77
2022/10/16 06:44:45;;;;;;;7.30;6.57;;;18.10;99.90;;;;;;5011470;28;20026;-77
2022/10/16 06:47:10;;;;;;;6.70;6.00;;;18.10;99.90;;;;;;5011641;28;20034;-77
2022/10/16 06:49:36;;;;;;;6.88;6.13;;;18.10;99.90;;;;;;5011178;28;20499;-77
2022/10/16 06:52:02;;;;;;;7.40;6.60;;;18.10;99.90;;;;;;5011679;28;20029;-77
2022/10/16 06:54:28;;;;;;;9.95;7.00;;;18.20;99.90;;;;;;5017200;28;20025;-77
2022/10/16 06:56:54;;;;;;;7.65;6.57;;;18.20;99.90;;;;;;5011626;28;20018;-77
2022/10/16 06:59:21;;;;;;;6.97;6.32;;;18.20;99.90;;;;;;5011318;28;20021;-77
2022/10/16 07:01:47;;;;;;;7.65;6.90;;;18.20;99.90;;;;;;5011580;28;20109;-77
2022/10/16 07:04:13;;;;;;;7.50;6.78;;;18.30;99.90;;;;;;5011473;28;20062;-77
2022/10/16 07:06:39;;;;;;;7.40;6.30;;;18.30;99.90;;;;;;5010118;28;20462;-77
2022/10/16 07:09:07;;;;;;;12.32;7.20;;;18.30;99.90;;;;;;5011387;28;20102;-77
2022/10/16 07:11:34;;;;;;;9.30;7.75;;;18.40;99.90;;;;;;5010995;28;20038;-77
2022/10/16 07:14:00;;;;;;;8.43;7.43;;;18.40;99.90;;;;;;5011196;28;20576;-77
2022/10/16 07:16:28;;;;;;;7.65;6.85;;;18.40;99.90;;;;;;5011411;28;20026;-77
2022/10/16 07:18:59;;;;;;;9.73;7.63;;;18.40;99.90;;;;;;5011134;28;20023;-77
2022/10/16 07:21:29;;;;;;;8.25;7.45;;;18.40;99.90;;;;;;5011224;28;20510;-77
2022/10/16 07:23:57;;;;;;;8.63;6.93;;;18.40;99.90;;;;;;5026175;28;20041;-77
2022/10/16 07:26:24;;;;;;;7.93;7.22;;;18.50;99.90;;;;;;5011282;28;20303;-77
2022/10/16 07:28:50;;;;;;;8.05;7.25;;;18.40;99.90;;;;;;5010123;28;20809;-77
2022/10/16 07:31:17;;;;;;;7.53;6.93;;;18.50;99.90;;;;;;5011201;28;20018;-77
2022/10/16 07:33:44;;;;;;;7.63;6.93;;;18.50;99.90;;;;;;5011312;28;20018;-77
2022/10/16 07:36:11;;;;;;;7.78;7.07;;;18.50;99.90;;;;;;5011069;28;20022;-77
2022/10/16 07:38:37;;;;;;;7.68;6.68;;;18.60;99.90;;;;;;5010986;28;20030;-77
2022/10/16 07:41:06;;;;;;;6.72;6.13;;;18.70;99.90;;;;;;5010660;28;20022;-77
2022/10/16 07:43:32;;;;;;;7.15;6.28;;;18.80;99.90;;;;;;5011046;28;20030;-77
2022/10/16 07:45:58;;;;;;;7.25;6.43;;;19.00;99.90;;;;;;5010825;28;20073;-77
2022/10/16 07:48:27;;;;;;;7.10;6.40;;;19.20;99.90;;;;;;5026137;28;20022;-77
2022/10/16 07:50:56;;;;;;;7.25;6.57;;;19.30;99.90;;;;;;5010229;28;20526;-77
2022/10/16 07:53:22;;;;;;;6.45;5.82;;;19.40;99.90;;;;;;5009946;28;20030;-77
2022/10/16 07:55:47;;;;;;;7.38;6.68;;;19.50;99.90;;;;;;5008450;28;20168;-77
2022/10/16 07:58:13;;;;;;;7.15;6.55;;;19.50;99.90;;;;;;5009031;28;20116;-77
2022/10/16 08:00:38;;;;;;;6.60;5.97;;;19.60;99.90;;;;;;5007347;28;20453;-77
2022/10/16 08:03:04;;;;;;;6.97;6.38;;;19.60;99.90;;;;;;5025470;28;20053;-77
2022/10/16 08:05:32;;;;;;;7.30;6.57;;;19.90;99.90;;;;;;5010566;28;20399;-77
2022/10/16 08:07:58;;;;;;;7.43;6.50;;;19.90;99.90;;;;;;5009053;28;20030;-77
2022/10/16 08:10:26;;;;;;;7.47;6.72;;;20.30;99.90;;;;;;5009578;28;20022;-78
2022/10/16 08:12:52;;;;;;;6.97;6.15;;;22.30;99.90;;;;;;5009812;28;20062;-77
2022/10/16 08:15:19;;;;;;;7.07;6.47;;;22.90;99.90;;;;;;5024142;28;20105;-77
2022/10/16 08:17:45;;;;;;;6.68;6.00;;;25.40;99.90;;;;;;5010133;28;20065;-77
2022/10/16 08:20:11;;;;;;;8.77;6.82;;;25.20;99.90;;;;;;5010766;28;20026;-77
2022/10/16 08:22:37;;;;;;;7.00;6.32;;;25.90;99.90;;;;;;5010282;28;20054;-77
2022/10/16 08:25:03;;;;;;;7.20;6.50;;;27.50;99.90;;;;;;5009443;28;20105;-77
2022/10/16 08:27:33;;;;;;;7.07;6.38;;;27.00;99.90;;;;;;5009491;28;20101;-77
2022/10/16 08:29:58;;;;;;;7.00;6.25;;;27.50;99.90;;;;;;5010290;28;20029;-77
2022/10/16 08:32:24;;;;;;;7.78;6.43;;;27.30;99.90;;;;;;5008606;28;20041;-78
2022/10/16 08:34:50;;;;;;;6.60;6.00;;;27.50;99.90;;;;;;5012760;28;20139;-78
2022/10/16 08:37:15;;;;;;;7.78;6.28;;;26.90;99.90;;;;;;5013069;28;20089;-77
2022/10/16 08:39:41;;;;;;;6.93;6.07;;;26.40;99.90;;;;;;5028205;28;20554;-77
2022/10/16 08:42:22;;;;;;;8.05;5.90;;;24.40;99.90;;;;;;5012813;28;20435;-77
2022/10/16 08:45:13;;;;;;;6.47;5.88;;;24.90;99.90;;;;;;5013605;28;20571;-78
2022/10/16 08:47:54;;;;;;;6.65;5.95;;;25.10;99.90;;;;;;5013646;28;20044;-77
2022/10/16 08:50:27;;;;;;;6.50;5.68;;;24.20;99.90;;;;;;5012553;28;20018;-77
2022/10/16 08:52:54;;;;;;;5.30;4.80;;;23.80;99.90;;;;;;5008362;28;20038;-78
2022/10/16 08:55:30;;;;;;;5.82;5.32;;;23.30;99.90;;;;;;5013150;28;20033;-77
2022/10/16 08:57:56;;;;;;;6.85;5.30;;;23.20;99.90;;;;;;5013672;28;20052;-78
2022/10/16 09:00:21;;;;;;;6.78;6.18;;;23.10;99.90;;;;;;5013395;28;20483;-77
2022/10/16 09:03:20;;;;;;;7.85;6.63;;;23.80;99.90;;;;;;5013157;28;20042;-77
2022/10/16 09:05:52;;;;;;;7.35;6.63;;;24.40;99.90;;;;;;5030785;28;20037;-77
2022/10/16 09:08:55;;;;;;;9.48;7.28;;;23.50;99.90;;;;;;5013873;28;20163;-78
2022/10/16 09:11:50;;;;;;;7.50;6.85;;;23.20;99.90;;;;;;5029941;28;20045;-76
2022/10/16 09:14:36;;;;;;;7.20;6.50;;;23.10;99.90;;;;;;5030487;28;20511;-78
2022/10/16 09:17:21;;;;;;;8.50;7.70;;;23.00;99.90;;;;;;5035812;28;20105;-77
2022/10/16 09:19:55;;;;;;;8.98;7.05;;;23.00;99.90;;;;;;5025538;28;20108;-77
2022/10/16 09:22:26;;;;;;;8.75;6.82;;;23.00;99.90;;;;;;5030334;28;20064;-77
2022/10/16 09:24:53;;;;;;;7.18;6.57;;;23.30;99.90;;;;;;5028363;28;20056;-78
2022/10/16 09:27:19;;;;;;;8.00;7.20;;;23.50;99.90;;;;;;5029674;28;20095;-78
2022/10/16 09:29:45;;;;;;;8.40;7.60;;;23.50;99.90;;;;;;5030589;28;20033;-77
2022/10/16 09:32:17;;;;;;;7.82;7.00;;;23.20;99.90;;;;;;5029662;28;20039;-77
2022/10/16 09:34:50;;;;;;;7.93;7.07;;;23.20;99.90;;;;;;5030380;28;20025;-77
2022/10/16 09:37:19;;;;;;;8.20;7.45;;;23.20;99.90;;;;;;5029706;28;20503;-77
2022/10/16 09:39:54;;;;;;;7.32;6.63;;;23.20;99.90;;;;;;5013572;28;20071;-77
2022/10/16 09:42:30;;;;;;;10.52;8.02;;;23.30;99.90;;;;;;5019842;28;20062;-77
2022/10/16 09:44:56;;;;;;;8.73;7.63;;;23.10;99.90;;;;;;5008518;28;20472;-77
2022/10/16 09:47:27;;;;;;;7.90;7.10;;;23.10;99.90;;;;;;5012043;28;20033;-77
2022/10/16 09:49:54;;;;;;;8.73;7.78;;;23.30;99.90;;;;;;5006354;28;20026;-77
2022/10/16 09:52:22;;;;;;;8.30;7.50;;;23.10;99.90;;;;;;5027592;28;20044;-77
2022/10/16 09:54:52;;;;;;;9.85;8.65;;;23.20;99.90;;;;;;5012508;28;20117;-77
2022/10/16 09:57:18;;;;;;;8.05;7.22;;;23.10;99.90;;;;;;5012216;28;20125;-77
2022/10/16 09:59:52;;;;;;;8.50;7.60;;;23.20;99.90;;;;;;5012884;28;20034;-77
2022/10/16 10:02:28;;;;;;;7.85;7.15;;;23.30;99.90;;;;;;5010871;28;20038;-77
2022/10/16 10:04:54;;;;;;;7.78;7.03;;;23.30;99.90;;;;;;5012143;28;20026;-77
2022/10/16 10:07:25;;;;;;;7.32;6.50;;;23.50;99.90;;;;;;5011880;28;20222;-77
2022/10/16 10:09:51;;;;;;;7.78;6.88;;;23.50;99.90;;;;;;5012781;28;20045;-77
2022/10/16 10:12:28;;;;;;;10.88;7.75;;;23.50;99.90;;;;;;5010413;28;20045;-77
2022/10/16 10:15:03;;;;;;;7.70;6.93;;;23.50;99.90;;;;;;5007079;28;20038;-77
2022/10/16 10:17:30;;;;;;;8.93;7.70;;;23.50;99.90;;;;;;5008919;28;20036;-77
2022/10/16 10:19:58;;;;;;;8.23;6.75;;;23.60;99.90;;;;;;5012298;28;20033;-75
2022/10/16 10:22:45;;;;;;;9.43;7.40;;;23.70;99.90;;;;;;5011488;28;20065;-77
2022/10/16 10:25:11;;;;;;;9.32;7.00;;;23.80;99.90;;;;;;5012131;28;20040;-77
2022/10/16 10:27:47;;;;;;;9.52;7.38;;;23.80;99.90;;;;;;5012355;28;20026;-78
2022/10/16 10:30:47;;;;;;;9.18;7.32;;;23.80;99.90;;;;;;5027263;28;20034;-77
2022/10/16 10:33:49;;;;;;;10.93;7.65;;;23.90;99.90;;;;;;5011803;28;20030;-78
2022/10/16 10:36:34;;;;;;;8.38;7.22;;;23.90;99.90;;;;;;5011598;28;20025;-75
2022/10/16 10:39:09;;;;;;;9.23;7.20;;;24.00;99.90;;;;;;5021828;28;20018;-77
2022/10/16 10:41:49;;;;;;;10.50;7.18;;;24.00;99.90;;;;;;5006206;28;20048;-77
2022/10/16 10:44:46;;;;;;;10.02;7.07;;;23.90;99.90;;;;;;5012391;28;20029;-77
2022/10/16 10:47:17;;;;;;;8.52;6.90;;;23.80;99.90;;;;;;5011504;28;20026;-78
2022/10/16 10:50:01;;;;;;;8.98;6.78;;;23.90;99.90;;;;;;5020091;28;20030;-78
2022/10/16 10:52:46;;;;;;;6.85;6.25;;;24.10;99.90;;;;;;5026464;28;20095;-77
2022/10/16 10:55:52;;;;;;;8.70;6.50;;;24.10;99.90;;;;;;5011370;28;20483;-78
2022/10/16 10:58:49;;;;;;;8.02;6.35;;;24.20;99.90;;;;;;5028922;28;20146;-78
2022/10/16 11:01:45;;;;;;;8.48;6.30;;;24.10;99.90;;;;;;5028608;28;20041;-78
2022/10/16 11:04:48;;;;;;;7.32;6.65;;;24.10;99.90;;;;;;5028608;28;20346;-77
2022/10/16 11:07:19;;;;;;;6.43;5.72;;;24.20;99.90;;;;;;4950384;29;20497;-78
2022/10/16 11:09:55;;;;;;;6.97;6.15;;;24.40;99.90;;;;;;4951121;29;20104;-77
2022/10/16 11:12:45;;;;;;;7.75;6.75;;;24.40;99.90;;;;;;4950159;29;20035;-78
2022/10/16 11:15:21;;;;;;;10.05;6.70;;;24.60;99.90;;;;;;4957844;28;20031;-78
2022/10/16 11:18:08;;;;;;;7.95;6.28;;;24.60;99.90;;;;;;4952162;28;20047;-77
2022/10/16 11:20:47;;;;;;;7.25;6.18;;;24.60;99.90;;;;;;4912361;29;20036;-77
2022/10/16 11:23:26;;;;;;;7.25;6.55;;;24.50;99.90;;;;;;4912001;29;20056;-77
2022/10/16 11:25:55;;;;;;;6.68;5.80;;;24.60;99.90;;;;;;4912136;29;20087;-78
2022/10/16 11:28:29;;;;;;;6.97;5.95;;;24.50;99.90;;;;;;4912454;29;20040;-78
2022/10/16 11:31:43;;;;;;;8.32;5.50;;;24.60;99.90;;;;;;4912078;29;20078;-78
2022/10/16 11:34:44;;;;;;;7.43;5.97;;;24.60;99.90;;;;;;4912033;29;20135;-77
2022/10/16 11:37:42;;;;;;;7.85;5.80;;;24.70;99.90;;;;;;4912236;29;20024;-77
2022/10/16 11:40:24;;;;;;;8.70;5.97;;;24.70;99.90;;;;;;4899595;29;20072;-77
2022/10/16 11:43:10;;;;;;;6.32;5.65;;;24.60;99.90;;;;;;4941389;28;20043;-78
2022/10/16 11:45:46;;;;;;;8.23;6.78;;;24.80;99.90;;;;;;4977126;28;20042;-77
2022/10/16 11:48:25;;;;;;;11.60;6.57;;;24.80;99.90;;;;;;4988375;28;20035;-77
2022/10/16 11:51:26;;;;;;;7.85;5.95;;;24.50;99.90;;;;;;4972064;28;20051;-77
2022/10/16 11:54:05;;;;;;;7.00;6.30;;;24.60;99.90;;;;;;4989113;28;20035;-77
2022/10/16 11:56:35;;;;;;;9.95;6.45;;;24.50;99.90;;;;;;4989456;28;20089;-78
2022/10/16 11:59:17;;;;;;;6.68;5.68;;;24.60;99.90;;;;;;5039415;28;20094;-77
2022/10/16 12:02:09;;;;;;;8.68;6.22;;;24.50;99.90;;;;;;5047839;28;20037;-77
2022/10/16 12:04:46;;;;;;;7.13;5.85;;;24.70;99.90;;;;;;5047977;28;20041;-77
2022/10/16 12:07:20;;;;;;;7.68;5.60;;;24.60;99.90;;;;;;5049200;28;20052;-77
2022/10/16 12:09:45;;;;;;;8.45;6.18;;;24.40;99.90;;;;;;5051920;28;20032;-77
2022/10/16 12:12:35;;;;;;;6.75;6.03;;;24.40;99.90;;;;;;5051271;28;20082;-77
2022/10/16 12:15:26;;;;;;;8.35;5.40;;;24.40;99.90;;;;;;5051816;28;20032;-77
2022/10/16 12:17:52;;;;;;;7.35;5.45;;;24.50;99.90;;;;;;5051434;28;20033;-77
2022/10/16 12:20:31;;;;;;;9.73;5.90;;;24.50;99.90;;;;;;5051840;28;20103;-77
2022/10/16 12:23:02;;;;;;;9.18;5.55;;;24.40;99.90;;;;;;5035031;28;20056;-77
2022/10/16 12:25:35;;;;;;;5.70;5.05;;;24.60;99.90;;;;;;5051544;28;20033;-75
2022/10/16 12:28:03;;;;;;;7.72;5.90;;;24.60;99.90;;;;;;5035135;28;20052;-77
2022/10/16 12:30:31;;;;;;;7.38;5.18;;;24.70;99.90;;;;;;5031391;28;20037;-78
2022/10/16 12:33:19;;;;;;;7.05;5.40;;;24.80;99.90;;;;;;5013980;28;20045;-76
2022/10/16 12:35:45;;;;;;;6.80;5.22;;;24.70;99.90;;;;;;5014124;28;20116;-77
2022/10/16 12:38:36;;;;;;;7.85;5.20;;;24.60;99.90;;;;;;5014390;28;20030;-78
2022/10/16 12:41:08;;;;;;;6.88;4.95;;;24.50;99.90;;;;;;5004401;28;20032;-77
2022/10/16 12:43:47;;;;;;;5.13;4.65;;;24.50;99.90;;;;;;5012559;28;20076;-78
2022/10/16 12:46:13;;;;;;;6.55;4.85;;;24.50;99.90;;;;;;5012377;28;20128;-75
2022/10/16 12:48:41;;;;;;;8.00;4.75;;;24.40;99.90;;;;;;5013725;28;20123;-77
2022/10/16 12:51:29;;;;;;;7.47;4.47;;;24.20;99.90;;;;;;5007654;28;20104;-77
2022/10/16 12:54:01;;;;;;;5.55;4.22;;;24.10;99.90;;;;;;5013741;28;20030;-77
2022/10/16 12:56:57;;;;;;;5.18;4.38;;;24.20;99.90;;;;;;5013654;28;20022;-78
2022/10/16 12:59:56;;;;;;;5.10;4.30;;;24.30;99.90;;;;;;5013147;28;20032;-77
2022/10/16 13:02:31;;;;;;;5.72;4.72;;;24.30;99.90;;;;;;5013223;28;20026;-77
2022/10/16 13:05:21;;;;;;;6.53;4.30;;;24.40;99.90;;;;;;5013504;28;20029;-75
2022/10/16 13:08:32;;;;;;;5.50;3.90;;;24.50;99.90;;;;;;5028464;28;20080;-77
2022/10/16 13:11:31;;;;;;;7.57;4.60;;;24.60;99.90;;;;;;5030601;28;20252;-77